Eastover, SC (29044)

1:18 AM EDT on September 02, 2015 (GMT -0400)
McEntire Angs | | Change Station
CLOSE
Current Station
Airport
Location: Eastover,
Elevation: 253 ft
Nearby Weather Stations

Elev 253 ft 33.92 °N, 80.80 °W | Updated 20 minutes ago

Clear
Clear
71 °F
Feels Like 71 °F
N
0
Wind Variable Wind from North

Today
High -- | Low -- °F
--% Chance of Precip.
Yesterday
High -- | Low -- °F
Precip. -- in
6:57 AM 7:47 PM
Waning Gibbous, 83% visible
Pressure 30.10 in
Visibility 10.0 miles
Clouds Clear
Dew Point 69 °F
Humidity 94%
Rainfall 0.00 in
Snow Depth Not available.
UV 0 out of 12
Pollen 8.40 out of 12
Air Quality Not available.
Flu Activity Not available.
METAR KMMT 020458Z AUTO 00000KT 10SM CLR 22/21 A3010 RMK AO2 SLP193 T02180208 403210196
Pressure 30.10 in
Visibility 10.0 miles
Clouds Clear
Dew Point 69 °F
Humidity 94%
Rainfall 0.00 in
Snow Depth Not available.
UV 0 out of 12
Pollen 8.40 out of 12
Air Quality Not available.
Flu Activity Not available.
METAR KMMT 020458Z AUTO 00000KT 10SM CLR 22/21 A3010 RMK AO2 SLP193 T02180208 403210196

10-Day Weather Forecast

×

Almanac

Astronomy

Sep. 02, 2015 Rise Set
Actual Time
Civil Twilight
Nautical Twilight
Astronomical Twilight
Moon
Length of Visible Light
Length of Day
Tomorrow will be .
, % of the Moon is Illuminated

Today's Extremes

State Highs State Lows

Community

WunderPhotos

Upload Photos

1,851,705 photos uploaded!

WunderBlogs® & News

Nearby

Air Quality

  Air Quality AQ Index Pollutant
Not available.

Snow Depth

Station Depth Elevation

Earthquake Activity

City Distance Mag. Time & Date
Minimum magnitude displayed is 2.5.

Coastal Water Temperatures

Place Temperature

Stations

Nearby Weather Stations

Station Location Temp. Windchill Dew Point Humidity Wind Precip. Elev Updated Type